Time;durP1;ratioP1;P1;durP2;ratioP2;P2;SDS_P1;SDS_P2;PMS_P1;PMS_P2;Temp;Humidity;BMP_temperature;BMP_pressure;BME280_temperature;BME280_humidity;BME280_pressure;Samples;Min_cycle;Max_cycle;Signal;HPM_P1;HPM_P2
2023/10/01 00:00:28;;;;;;;10.43;7.73;;;12.00;99.90;;;;;;6001506;24;20372;-76
2023/10/01 00:02:59;;;;;;;11.50;8.17;;;12.00;99.90;;;;;;6001995;24;20388;-74
2023/10/01 00:05:26;;;;;;;10.57;7.87;;;12.00;99.90;;;;;;6004235;24;20400;-75
2023/10/01 00:07:53;;;;;;;9.30;6.83;;;11.90;99.90;;;;;;6025701;23;20413;-74
2023/10/01 00:10:20;;;;;;;11.70;7.97;;;11.90;99.90;;;;;;6024873;23;20376;-73
2023/10/01 00:12:52;;;;;;;11.67;8.03;;;11.90;99.90;;;;;;6034338;23;20384;-73
2023/10/01 00:15:21;;;;;;;8.83;6.90;;;11.90;99.90;;;;;;6008551;23;20416;-73
2023/10/01 00:17:48;;;;;;;9.60;7.20;;;11.90;99.90;;;;;;5975506;24;20465;-75
2023/10/01 00:20:25;;;;;;;9.60;7.50;;;11.90;99.90;;;;;;5976112;24;20373;-76
2023/10/01 00:23:02;;;;;;;6.80;6.10;;;11.80;99.90;;;;;;5922614;24;20952;-74
2023/10/01 00:25:30;;;;;;;11.50;7.73;;;11.80;99.90;;;;;;5944664;24;20386;-75
2023/10/01 00:28:00;;;;;;;11.97;7.53;;;11.80;99.90;;;;;;5968944;24;20483;-73
2023/10/01 00:30:31;;;;;;;11.57;9.17;;;11.80;99.90;;;;;;5968322;24;20386;-74
2023/10/01 00:32:58;;;;;;;10.93;8.50;;;11.80;99.90;;;;;;5967131;24;20880;-73
2023/10/01 00:35:27;;;;;;;9.00;7.10;;;11.80;99.90;;;;;;5945298;24;20360;-72
2023/10/01 00:37:53;;;;;;;11.43;8.03;;;11.80;99.90;;;;;;5965818;24;20398;-73
2023/10/01 00:40:19;;;;;;;10.87;8.43;;;11.70;99.90;;;;;;5964169;24;20410;-73
2023/10/01 00:42:46;;;;;;;9.30;7.33;;;11.70;99.90;;;;;;5966727;24;20397;-74
2023/10/01 00:45:13;;;;;;;10.80;8.00;;;11.70;99.90;;;;;;5943652;24;20150;-73
2023/10/01 00:47:41;;;;;;;11.30;8.47;;;11.70;99.90;;;;;;5946272;24;20447;-74
2023/10/01 00:50:21;;;;;;;9.13;7.20;;;11.70;99.90;;;;;;5994808;24;20476;-73
2023/10/01 00:52:51;;;;;;;10.33;7.87;;;11.70;99.90;;;;;;5999071;23;20378;-74
2023/10/01 00:55:18;;;;;;;9.70;8.20;;;11.70;99.90;;;;;;5982142;23;20393;-76
2023/10/01 00:57:44;;;;;;;10.47;7.63;;;11.60;99.90;;;;;;6007150;23;20402;-75
2023/10/01 01:00:16;;;;;;;9.80;8.80;;;11.60;99.90;;;;;;6028089;23;20388;-74
2023/10/01 01:02:56;;;;;;;10.73;7.83;;;11.60;99.90;;;;;;5981020;23;20384;-72
2023/10/01 01:05:28;;;;;;;11.23;7.83;;;11.60;99.90;;;;;;6009622;23;20483;-73
2023/10/01 01:08:00;;;;;;;8.87;6.27;;;11.60;99.90;;;;;;5981725;23;20451;-73
2023/10/01 01:10:31;;;;;;;9.30;7.87;;;11.60;99.90;;;;;;6004039;23;20384;-73
2023/10/01 01:12:59;;;;;;;11.63;8.27;;;11.50;99.90;;;;;;6004109;23;20383;-74
2023/10/01 01:15:27;;;;;;;9.10;6.97;;;11.50;99.90;;;;;;6054239;23;20363;-73
2023/10/01 01:17:53;;;;;;;10.10;6.80;;;11.50;99.90;;;;;;6002637;23;20399;-74
2023/10/01 01:20:22;;;;;;;10.20;7.23;;;11.50;99.90;;;;;;6026397;23;20682;-73
2023/10/01 01:22:51;;;;;;;15.90;10.10;;;11.50;99.90;;;;;;6025455;23;20447;-72
2023/10/01 01:25:20;;;;;;;11.27;8.40;;;11.50;99.90;;;;;;6047425;23;20815;-73
2023/10/01 01:27:50;;;;;;;10.10;8.30;;;11.50;99.90;;;;;;6047421;23;20745;-74
2023/10/01 01:30:26;;;;;;;9.93;7.50;;;11.50;99.90;;;;;;5978020;23;20386;-73
2023/10/01 01:32:53;;;;;;;8.53;7.07;;;11.50;99.90;;;;;;6024591;23;20367;-73
2023/10/01 01:35:27;;;;;;;9.60;7.77;;;11.50;99.90;;;;;;5978981;23;20449;-73
2023/10/01 01:38:00;;;;;;;10.10;7.23;;;11.40;99.90;;;;;;6002388;23;20379;-72
2023/10/01 01:40:31;;;;;;;7.47;6.63;;;11.50;99.90;;;;;;6047191;23;20376;-72
2023/10/01 01:43:03;;;;;;;8.33;6.60;;;11.40;99.90;;;;;;6023546;23;20375;-72
2023/10/01 01:45:33;;;;;;;7.07;5.93;;;11.40;99.90;;;;;;6025259;23;20367;-74
2023/10/01 01:48:21;;;;;;;8.40;6.60;;;11.40;99.90;;;;;;6047585;23;20412;-71
2023/10/01 01:50:50;;;;;;;5.93;5.00;;;11.30;99.90;;;;;;6023430;23;20627;-72
2023/10/01 01:53:18;;;;;;;6.97;5.43;;;11.30;99.90;;;;;;6025047;23;20423;-73
2023/10/01 01:55:47;;;;;;;6.37;4.60;;;11.30;99.90;;;;;;6028602;23;20351;-74
2023/10/01 01:58:15;;;;;;;10.53;5.13;;;11.30;99.90;;;;;;6001860;23;20400;-72
2023/10/01 02:01:01;;;;;;;5.70;4.47;;;11.30;99.90;;;;;;6048276;23;20398;-74
2023/10/01 02:03:32;;;;;;;7.70;6.10;;;11.30;99.90;;;;;;6021191;23;20406;-74
2023/10/01 02:05:59;;;;;;;12.10;7.90;;;11.30;99.90;;;;;;5999618;23;20435;-74
2023/10/01 02:08:34;;;;;;;12.37;8.00;;;11.30;99.90;;;;;;6023050;23;20410;-72
2023/10/01 02:11:09;;;;;;;11.03;7.00;;;11.30;99.90;;;;;;6022831;23;20375;-73
2023/10/01 02:13:41;;;;;;;8.67;7.40;;;11.30;99.90;;;;;;6047699;23;20911;-74
2023/10/01 02:19:11;;;;;;;6.80;5.37;;;11.30;99.90;;;;;;6027408;23;20391;-71
2023/10/01 02:21:43;;;;;;;6.93;6.20;;;11.30;99.90;;;;;;6046097;23;20473;-72
2023/10/01 02:24:22;;;;;;;7.20;5.90;;;11.30;99.90;;;;;;6048848;23;20408;-73
2023/10/01 02:26:53;;;;;;;9.53;6.97;;;11.30;99.90;;;;;;6002702;23;20477;-74
2023/10/01 02:29:24;;;;;;;10.23;7.83;;;11.30;99.90;;;;;;6046614;23;20374;-73
2023/10/01 02:31:56;;;;;;;13.17;9.07;;;11.30;99.90;;;;;;5999102;23;20380;-73
2023/10/01 02:34:23;;;;;;;11.00;6.30;;;11.30;99.90;;;;;;6023965;23;20425;-72
2023/10/01 02:36:49;;;;;;;12.90;7.87;;;11.20;99.90;;;;;;6023639;23;20386;-72
2023/10/01 02:39:27;;;;;;;12.40;7.87;;;11.30;99.90;;;;;;5975728;23;20403;-72
2023/10/01 02:44:32;;;;;;;9.23;6.97;;;11.30;99.90;;;;;;6022054;23;20414;-73
2023/10/01 02:47:03;;;;;;;9.67;7.23;;;11.30;99.90;;;;;;6045982;23;20690;-73
2023/10/01 02:49:32;;;;;;;11.30;7.80;;;11.30;99.90;;;;;;5998983;23;20423;-71
2023/10/01 02:52:03;;;;;;;11.97;7.90;;;11.30;99.90;;;;;;6047516;23;20380;-73
2023/10/01 02:54:29;;;;;;;9.43;6.73;;;11.30;99.90;;;;;;6044872;23;20672;-71
2023/10/01 02:57:23;;;;;;;8.63;7.37;;;11.30;99.90;;;;;;6047415;23;20410;-74
2023/10/01 03:02:38;;;;;;;11.10;6.90;;;11.30;99.90;;;;;;6006758;23;20379;-73
2023/10/01 03:05:07;;;;;;;6.90;5.73;;;11.30;99.90;;;;;;6050493;23;20399;-73
2023/10/01 03:07:40;;;;;;;8.37;6.27;;;11.30;99.90;;;;;;6047718;23;20463;-71
2023/10/01 03:10:15;;;;;;;11.00;6.23;;;11.30;99.90;;;;;;6052878;23;20386;-73
2023/10/01 03:12:42;;;;;;;9.00;6.60;;;11.30;99.90;;;;;;6034789;23;20375;-72
2023/10/01 03:17:39;;;;;;;8.50;5.70;;;11.30;99.90;;;;;;6001713;24;20372;-72
2023/10/01 03:21:04;;;;;;;7.27;5.83;;;11.40;99.90;;;;;;6001506;24;20378;-71
2023/10/01 03:23:01;;;;;;;6.53;5.27;;;11.40;99.90;;;;;;5979828;24;20411;-73
2023/10/01 03:25:32;;;;;;;10.77;7.00;;;11.40;99.90;;;;;;5999738;24;20384;-73
2023/10/01 03:27:58;;;;;;;8.90;5.57;;;11.30;99.90;;;;;;5997698;24;20431;-74
2023/10/01 03:30:31;;;;;;;7.10;6.13;;;11.40;99.90;;;;;;5974296;24;20464;-72
2023/10/01 03:33:07;;;;;;;7.10;6.13;;;11.40;99.90;;;;;;5998220;24;20361;-72
2023/10/01 03:35:34;;;;;;;7.17;5.77;;;11.40;99.90;;;;;;6001377;24;20461;-73
2023/10/01 03:38:09;;;;;;;9.10;6.63;;;11.30;99.90;;;;;;5998876;24;20475;-73
2023/10/01 03:43:31;;;;;;;8.27;6.40;;;11.30;99.90;;;;;;6001553;24;20432;-74
2023/10/01 03:46:06;;;;;;;9.20;7.00;;;11.40;99.90;;;;;;6000016;24;20392;-72
2023/10/01 03:48:57;;;;;;;7.57;6.20;;;11.40;99.90;;;;;;6000616;24;20454;-73
2023/10/01 03:51:29;;;;;;;10.00;7.43;;;11.40;99.90;;;;;;5976723;24;20647;-71
2023/10/01 03:53:59;;;;;;;13.60;8.07;;;11.40;99.90;;;;;;6001547;24;20404;-73
2023/10/01 03:56:30;;;;;;;12.77;8.13;;;11.40;99.90;;;;;;6000787;24;20376;-73
2023/10/01 03:58:56;;;;;;;9.33;7.00;;;11.40;99.90;;;;;;5975502;24;20384;-72
2023/10/01 04:01:33;;;;;;;11.33;7.93;;;11.40;99.90;;;;;;5996100;23;20387;-72
2023/10/01 04:04:02;;;;;;;10.90;8.00;;;11.40;99.90;;;;;;5993370;24;20404;-71
2023/10/01 04:06:30;;;;;;;14.60;8.80;;;11.40;99.90;;;;;;6001233;24;20415;-72
2023/10/01 04:08:56;;;;;;;11.90;8.17;;;11.50;99.90;;;;;;5996432;23;20503;-73
2023/10/01 04:11:41;;;;;;;11.90;7.83;;;11.50;99.90;;;;;;5994663;24;20424;-73
2023/10/01 04:14:17;;;;;;;11.63;7.83;;;11.50;99.90;;;;;;5992703;23;20471;-73
2023/10/01 04:16:46;;;;;;;11.37;7.40;;;11.50;99.90;;;;;;6011117;23;20442;-73
2023/10/01 04:19:24;;;;;;;8.73;7.27;;;11.50;99.90;;;;;;6039877;23;20415;-71
2023/10/01 04:21:50;;;;;;;9.47;7.20;;;11.50;99.90;;;;;;6016177;23;20374;-72
2023/10/01 04:24:21;;;;;;;10.73;7.10;;;11.40;99.90;;;;;;6017037;23;20836;-71
2023/10/01 04:26:47;;;;;;;11.30;7.33;;;11.40;99.90;;;;;;6015850;23;20458;-72
2023/10/01 04:29:16;;;;;;;7.90;6.80;;;11.40;99.90;;;;;;6015682;23;20403;-73
2023/10/01 04:31:42;;;;;;;8.43;6.70;;;11.40;99.90;;;;;;6013960;23;20505;-71
2023/10/01 04:34:13;;;;;;;10.67;7.33;;;11.40;99.90;;;;;;6036598;23;20414;-72
2023/10/01 04:36:42;;;;;;;10.50;7.27;;;11.30;99.90;;;;;;6014584;23;20821;-71
2023/10/01 04:39:09;;;;;;;12.50;6.97;;;11.30;99.90;;;;;;6014882;23;20391;-71
2023/10/01 04:41:35;;;;;;;9.90;7.03;;;11.40;99.90;;;;;;6013312;23;20378;-71
2023/10/01 04:44:08;;;;;;;8.00;5.63;;;11.40;99.90;;;;;;6013689;23;20430;-71
2023/10/01 04:46:40;;;;;;;8.30;6.40;;;11.30;99.90;;;;;;5989005;23;20367;-72
2023/10/01 04:49:26;;;;;;;9.57;6.13;;;11.30;99.90;;;;;;6014432;23;20364;-71
2023/10/01 04:51:54;;;;;;;7.90;5.60;;;11.30;99.90;;;;;;6037437;23;20383;-73
2023/10/01 04:54:21;;;;;;;7.67;5.63;;;11.30;99.90;;;;;;6014659;23;20379;-73
2023/10/01 04:56:48;;;;;;;8.63;5.80;;;11.30;99.90;;;;;;6015109;23;20390;-71
2023/10/01 04:59:18;;;;;;;9.37;6.80;;;11.30;99.90;;;;;;6015692;23;20367;-71
2023/10/01 05:01:44;;;;;;;12.13;6.13;;;11.30;99.90;;;;;;6016130;23;20454;-71
2023/10/01 05:04:14;;;;;;;7.07;6.07;;;11.20;99.90;;;;;;6016414;23;20718;-72
2023/10/01 05:06:43;;;;;;;10.87;6.33;;;11.20;99.90;;;;;;6016354;23;20252;-72
2023/10/01 05:09:09;;;;;;;7.47;5.43;;;11.20;99.90;;;;;;6017561;23;20383;-73
2023/10/01 05:11:34;;;;;;;10.53;8.10;;;11.20;99.90;;;;;;6015980;23;20415;-72
2023/10/01 05:14:04;;;;;;;10.47;6.93;;;11.20;99.90;;;;;;6014377;23;20399;-71
2023/10/01 05:16:31;;;;;;;11.63;7.57;;;11.20;99.90;;;;;;6015826;23;20629;-74
2023/10/01 05:19:09;;;;;;;14.67;7.70;;;11.20;99.90;;;;;;6013733;23;20379;-72
2023/10/01 05:21:48;;;;;;;9.97;7.13;;;11.20;99.90;;;;;;6013857;23;20446;-72
2023/10/01 05:24:36;;;;;;;9.23;6.57;;;11.20;99.90;;;;;;6015192;23;20411;-72
2023/10/01 05:27:09;;;;;;;8.03;6.30;;;11.20;99.90;;;;;;6015165;23;20422;-72
2023/10/01 05:29:38;;;;;;;8.77;6.53;;;11.20;99.90;;;;;;6015781;23;20462;-72
2023/10/01 05:32:04;;;;;;;7.87;6.00;;;11.20;99.90;;;;;;6015382;23;20670;-71
2023/10/01 05:34:31;;;;;;;10.20;7.83;;;11.20;99.90;;;;;;6014203;23;20383;-71
2023/10/01 05:37:12;;;;;;;10.07;7.40;;;11.20;99.90;;;;;;6013617;23;20391;-71
2023/10/01 05:42:28;;;;;;;9.50;6.90;;;11.20;99.90;;;;;;6014773;23;20383;-70
2023/10/01 05:44:59;;;;;;;8.60;6.53;;;11.30;99.90;;;;;;6019664;23;20596;-70
2023/10/01 05:50:12;;;;;;;11.77;7.90;;;11.30;99.90;;;;;;6014053;23;20368;-71
2023/10/01 05:52:40;;;;;;;10.67;6.90;;;11.30;99.90;;;;;;6035403;23;20454;-72
2023/10/01 05:55:12;;;;;;;9.07;6.40;;;11.40;99.90;;;;;;6014117;23;20845;-72
2023/10/01 05:57:38;;;;;;;9.53;7.03;;;11.40;99.90;;;;;;6014002;23;20371;-71
2023/10/01 06:00:16;;;;;;;9.00;6.50;;;11.40;99.90;;;;;;6013144;23;20399;-72
2023/10/01 06:03:00;;;;;;;10.60;6.93;;;11.50;99.90;;;;;;6044986;23;20438;-72
2023/10/01 06:05:33;;;;;;;8.60;5.50;;;11.50;99.90;;;;;;6047316;23;20383;-72
2023/10/01 06:07:59;;;;;;;6.70;5.40;;;11.50;99.90;;;;;;6045032;23;20473;-72
2023/10/01 06:10:35;;;;;;;10.80;7.57;;;11.50;99.90;;;;;;6023757;23;20375;-72
2023/10/01 06:13:06;;;;;;;10.73;7.93;;;11.60;99.90;;;;;;6046653;23;20443;-73
2023/10/01 06:15:33;;;;;;;8.93;7.17;;;11.60;99.90;;;;;;6046054;23;20490;-73
2023/10/01 06:18:01;;;;;;;10.53;7.00;;;11.70;99.90;;;;;;5999679;23;20384;-72
2023/10/01 06:20:27;;;;;;;8.30;6.50;;;11.70;99.90;;;;;;5975783;23;20368;-73
2023/10/01 06:22:55;;;;;;;10.50;7.20;;;11.70;99.90;;;;;;6000913;23;20372;-73
2023/10/01 06:25:37;;;;;;;10.47;7.37;;;11.80;99.90;;;;;;5976532;23;20384;-73
2023/10/01 06:28:20;;;;;;;9.03;6.70;;;11.90;99.90;;;;;;6048290;23;20718;-73
2023/10/01 06:30:46;;;;;;;12.83;6.87;;;11.90;99.90;;;;;;6020213;23;20398;-71
2023/10/01 06:33:24;;;;;;;10.30;6.70;;;12.00;99.90;;;;;;6047765;23;20406;-74
2023/10/01 06:36:19;;;;;;;8.50;6.60;;;12.00;99.90;;;;;;6021030;23;20493;-71
2023/10/01 06:38:44;;;;;;;8.23;6.83;;;12.10;99.90;;;;;;6022696;23;20681;-72
2023/10/01 06:41:18;;;;;;;8.07;6.20;;;12.10;99.90;;;;;;6000767;23;20387;-73
2023/10/01 06:43:49;;;;;;;8.40;6.57;;;12.20;99.90;;;;;;6025778;23;20410;-72
2023/10/01 06:46:32;;;;;;;9.20;6.20;;;12.20;99.90;;;;;;6047023;23;20375;-73
2023/10/01 06:48:58;;;;;;;8.03;6.40;;;12.30;99.90;;;;;;6027335;23;20410;-75
2023/10/01 06:51:26;;;;;;;8.83;6.07;;;12.30;99.90;;;;;;6025470;23;20383;-73
2023/10/01 06:53:59;;;;;;;7.60;6.30;;;12.40;99.90;;;;;;6001003;23;20538;-73
2023/10/01 06:56:27;;;;;;;8.33;6.20;;;12.50;99.90;;;;;;6024745;23;20642;-73
2023/10/01 07:01:43;;;;;;;8.90;4.97;;;12.60;99.90;;;;;;6024386;23;20379;-73
2023/10/01 07:04:09;;;;;;;7.83;5.83;;;12.70;99.90;;;;;;6048516;23;20403;-74
2023/10/01 07:06:36;;;;;;;8.47;6.07;;;12.80;99.90;;;;;;6024022;23;20387;-73
2023/10/01 07:09:02;;;;;;;7.17;5.53;;;12.80;99.90;;;;;;6023679;23;20571;-73
2023/10/01 07:11:29;;;;;;;5.37;4.03;;;12.90;99.90;;;;;;6050882;23;20618;-72
2023/10/01 07:13:56;;;;;;;10.57;6.30;;;13.00;99.90;;;;;;6001958;23;20404;-73
2023/10/01 07:16:39;;;;;;;10.93;6.00;;;13.10;99.90;;;;;;6048023;23;20442;-72
2023/10/01 07:19:13;;;;;;;7.80;5.70;;;13.20;99.90;;;;;;6026215;23;20383;-75
2023/10/01 07:21:45;;;;;;;8.97;6.63;;;13.30;99.90;;;;;;6050950;23;20390;-74
2023/10/01 07:24:11;;;;;;;10.50;6.53;;;13.40;99.90;;;;;;6002606;23;20422;-73
2023/10/01 07:26:42;;;;;;;10.27;6.27;;;13.50;99.90;;;;;;5981291;23;20649;-74
2023/10/01 07:29:08;;;;;;;11.73;6.37;;;13.50;99.90;;;;;;6028256;23;20395;-75
2023/10/01 07:31:35;;;;;;;8.40;5.50;;;13.60;99.90;;;;;;6030560;23;20461;-76
2023/10/01 07:34:13;;;;;;;8.10;5.80;;;13.70;99.90;;;;;;6056249;23;20393;-75
2023/10/01 07:36:42;;;;;;;7.50;5.40;;;13.80;99.90;;;;;;6007337;23;20378;-75
2023/10/01 07:39:13;;;;;;;8.80;6.87;;;13.80;99.90;;;;;;6053950;23;20402;-73
2023/10/01 07:41:44;;;;;;;7.30;5.03;;;13.90;99.90;;;;;;6031398;23;20399;-76
2023/10/01 07:44:12;;;;;;;11.53;5.70;;;14.00;99.90;;;;;;6054812;23;20472;-77
2023/10/01 07:46:40;;;;;;;8.83;5.90;;;14.10;99.90;;;;;;6010366;23;20370;-76
2023/10/01 07:49:09;;;;;;;6.77;5.47;;;14.20;99.90;;;;;;6032658;23;20395;-76
2023/10/01 07:51:44;;;;;;;8.57;5.30;;;14.20;99.90;;;;;;6008291;23;20788;-77
2023/10/01 07:54:11;;;;;;;8.80;5.90;;;14.40;99.90;;;;;;5987247;23;20427;-77
2023/10/01 07:56:39;;;;;;;9.43;6.20;;;14.40;99.90;;;;;;6055378;23;20391;-76
2023/10/01 07:59:23;;;;;;;9.93;5.40;;;14.50;99.90;;;;;;6009559;23;20379;-77
2023/10/01 08:02:07;;;;;;;7.20;5.20;;;14.60;99.90;;;;;;6008359;23;20379;-76
2023/10/01 08:04:51;;;;;;;8.77;5.70;;;14.60;99.90;;;;;;6055345;23;20509;-77
2023/10/01 08:07:22;;;;;;;8.17;5.30;;;14.80;99.90;;;;;;6033753;23;20438;-77
2023/10/01 08:09:52;;;;;;;10.77;5.30;;;14.80;99.90;;;;;;6034525;23;20376;-76
2023/10/01 08:13:04;;;;;;;7.60;4.80;;;14.90;99.90;;;;;;6033705;23;20372;-77
2023/10/01 08:15:29;;;;;;;9.80;6.70;;;15.00;99.90;;;;;;6009018;23;20375;-76
2023/10/01 08:18:19;;;;;;;7.20;4.80;;;15.10;99.90;;;;;;6034513;23;20382;-76
2023/10/01 08:21:00;;;;;;;11.70;6.50;;;15.20;99.90;;;;;;6011520;23;20364;-76
2023/10/01 08:23:31;;;;;;;10.30;6.10;;;15.30;99.90;;;;;;6033481;23;20438;-76
2023/10/01 08:26:39;;;;;;;7.50;5.27;;;15.40;99.90;;;;;;6058622;23;20380;-76
2023/10/01 08:28:56;;;;;;;7.10;4.57;;;15.40;99.90;;;;;;6035161;23;20403;-76
2023/10/01 08:34:24;;;;;;;11.60;5.00;;;15.60;99.90;;;;;;6035427;23;20431;-77
2023/10/01 08:36:56;;;;;;;8.90;5.10;;;15.70;99.90;;;;;;5989127;23;20399;-76
2023/10/01 08:39:53;;;;;;;8.87;5.20;;;15.80;99.90;;;;;;6034648;23;20384;-78
2023/10/01 08:42:21;;;;;;;6.83;4.87;;;15.90;99.90;;;;;;6060412;23;20379;-76
2023/10/01 08:45:03;;;;;;;8.97;5.10;;;16.00;99.90;;;;;;6013478;23;20471;-77
2023/10/01 08:47:36;;;;;;;9.70;5.30;;;16.10;99.90;;;;;;6011072;23;20419;-77
2023/10/01 08:55:15;;;;;;;9.87;6.23;;;16.40;99.90;;;;;;6134418;23;20485;-77
2023/10/01 08:57:45;;;;;;;9.33;5.57;;;16.50;99.90;;;;;;6102737;23;20479;-77
2023/10/01 09:00:19;;;;;;;10.63;6.20;;;16.50;99.90;;;;;;6124967;23;20392;-77
2023/10/01 09:03:12;;;;;;;8.10;5.70;;;16.60;99.90;;;;;;6150379;23;20396;-77
2023/10/01 09:05:46;;;;;;;8.57;5.40;;;16.80;99.90;;;;;;6148693;23;20460;-77
2023/10/01 09:08:29;;;;;;;8.13;5.53;;;16.80;99.90;;;;;;6151246;23;20424;-77
2023/10/01 09:11:00;;;;;;;8.53;4.80;;;16.90;99.90;;;;;;6171682;23;20384;-77
2023/10/01 09:13:30;;;;;;;9.40;5.70;;;17.00;99.90;;;;;;6124627;23;20411;-78
2023/10/01 09:16:10;;;;;;;9.10;5.20;;;17.10;99.90;;;;;;6149925;23;20381;-78
2023/10/01 09:19:03;;;;;;;9.70;6.10;;;17.20;99.90;;;;;;6123230;23;20386;-76
2023/10/01 09:21:38;;;;;;;10.33;6.30;;;17.30;99.90;;;;;;6123261;23;20369;-76
2023/10/01 09:24:42;;;;;;;9.50;5.47;;;17.40;99.90;;;;;;6123623;23;20408;-75
2023/10/01 09:27:24;;;;;;;7.87;5.50;;;17.50;99.90;;;;;;6121216;23;20390;-77
2023/10/01 09:32:51;;;;;;;11.53;6.80;;;17.50;99.90;;;;;;6149943;23;20437;-77
2023/10/01 09:36:33;;;;;;;8.60;6.00;;;17.60;99.90;;;;;;6125495;23;20401;-77
2023/10/01 09:38:27;;;;;;;14.20;6.47;;;17.70;99.90;;;;;;6125621;23;20379;-76
2023/10/01 09:41:19;;;;;;;7.40;5.37;;;17.80;99.90;;;;;;6149147;23;20466;-77
2023/10/01 09:43:58;;;;;;;7.97;4.50;;;17.90;99.90;;;;;;6149118;23;20401;-77
2023/10/01 09:46:33;;;;;;;9.20;6.13;;;18.00;99.90;;;;;;6148140;23;20382;-74
2023/10/01 09:49:02;;;;;;;8.10;5.47;;;18.10;99.90;;;;;;6123358;23;20508;-75
2023/10/01 09:51:41;;;;;;;7.60;5.13;;;18.20;99.90;;;;;;6122931;23;20376;-75
2023/10/01 09:54:28;;;;;;;8.07;5.30;;;18.30;99.90;;;;;;6131850;23;20454;-76
2023/10/01 09:56:56;;;;;;;8.50;5.30;;;18.40;99.90;;;;;;6147060;23;20379;-77
2023/10/01 09:59:26;;;;;;;6.80;4.77;;;18.50;99.90;;;;;;6121645;23;20386;-76
2023/10/01 10:02:02;;;;;;;11.47;7.00;;;18.70;99.90;;;;;;6123052;23;20390;-76
2023/10/01 10:04:32;;;;;;;7.70;5.00;;;18.70;99.90;;;;;;6171586;23;20410;-77
2023/10/01 10:07:01;;;;;;;10.00;6.20;;;18.80;99.90;;;;;;6098928;23;20423;-77
2023/10/01 10:09:31;;;;;;;11.30;7.00;;;18.90;99.90;;;;;;6122375;23;20403;-78
2023/10/01 10:12:07;;;;;;;9.30;6.17;;;19.10;99.90;;;;;;6101552;23;20434;-77
2023/10/01 10:14:44;;;;;;;7.50;4.77;;;19.20;99.90;;;;;;6104603;23;20415;-77
2023/10/01 10:23:21;;;;;;;7.00;4.60;;;19.60;99.90;;;;;;6148647;23;20407;-77
2023/10/01 10:25:48;;;;;;;12.50;6.90;;;19.80;99.80;;;;;;6148258;23;20387;-77
2023/10/01 10:28:25;;;;;;;8.13;6.30;;;19.90;98.10;;;;;;6148737;23;20411;-78
2023/10/01 10:31:30;;;;;;;7.70;5.20;;;20.00;97.90;;;;;;6147254;23;20512;-77
2023/10/01 10:34:25;;;;;;;8.97;6.30;;;20.00;97.20;;;;;;6123362;23;20432;-77
2023/10/01 10:36:54;;;;;;;11.67;6.33;;;20.10;97.00;;;;;;6149970;23;20363;-77
2023/10/01 10:42:58;;;;;;;6.97;4.40;;;20.30;95.40;;;;;;6034413;23;20463;-77
2023/10/01 10:46:09;;;;;;;11.87;6.00;;;20.40;95.30;;;;;;5979660;24;20405;-77
2023/10/01 10:48:59;;;;;;;8.00;5.20;;;20.50;94.80;;;;;;6001136;23;20413;-78
2023/10/01 10:52:08;;;;;;;10.30;6.27;;;20.60;94.00;;;;;;5973813;24;20393;-79
2023/10/01 10:54:52;;;;;;;10.90;7.10;;;20.60;92.80;;;;;;5976072;24;20401;-76
2023/10/01 10:57:25;;;;;;;11.80;7.03;;;20.60;92.70;;;;;;5957873;24;20547;-77
2023/10/01 10:59:52;;;;;;;11.57;6.57;;;20.70;93.00;;;;;;5953535;24;20384;-77
2023/10/01 11:02:20;;;;;;;10.20;7.20;;;20.70;92.90;;;;;;5977882;24;20393;-78
2023/10/01 11:04:49;;;;;;;12.53;8.20;;;20.70;92.60;;;;;;6000282;23;20412;-76
2023/10/01 11:07:20;;;;;;;12.23;7.10;;;20.70;92.40;;;;;;5976340;24;20469;-77
2023/10/01 11:09:53;;;;;;;11.80;7.50;;;21.00;91.60;;;;;;6013678;23;20386;-78
2023/10/01 11:12:21;;;;;;;11.10;6.20;;;20.90;91.40;;;;;;6042141;23;20369;-76
2023/10/01 11:17:48;;;;;;;12.90;8.03;;;20.80;91.60;;;;;;6150677;23;20400;-77
2023/10/01 11:20:32;;;;;;;14.07;8.40;;;20.80;91.20;;;;;;6123372;23;20375;-76
2023/10/01 11:23:19;;;;;;;11.00;7.50;;;20.80;91.20;;;;;;6124033;23;20591;-79
2023/10/01 11:25:47;;;;;;;10.90;6.73;;;20.90;91.30;;;;;;6173134;23;20714;-76
2023/10/01 11:28:14;;;;;;;9.40;5.77;;;20.90;91.10;;;;;;6148678;23;20442;-76
2023/10/01 11:30:43;;;;;;;8.33;6.00;;;21.00;90.90;;;;;;6124111;23;20399;-77
2023/10/01 11:35:38;;;;;;;12.17;6.93;;;21.00;90.30;;;;;;6124060;23;20383;-76
2023/10/01 11:44:25;;;;;;;11.47;7.57;;;21.20;88.40;;;;;;6069666;23;20463;-76
2023/10/01 11:46:58;;;;;;;16.33;8.30;;;21.20;87.90;;;;;;6120210;23;20373;-77
2023/10/01 11:49:34;;;;;;;12.30;7.03;;;21.30;87.50;;;;;;6095039;23;20404;-76
2023/10/01 11:52:21;;;;;;;10.53;6.73;;;21.40;86.20;;;;;;6073057;23;20904;-77
2023/10/01 11:54:55;;;;;;;11.00;6.97;;;21.40;85.50;;;;;;6119855;23;20412;-76
2023/10/01 11:57:27;;;;;;;10.03;6.00;;;21.40;85.50;;;;;;6121311;23;20365;-77
2023/10/01 11:59:56;;;;;;;10.30;6.60;;;21.40;85.80;;;;;;6122343;23;20347;-76
2023/10/01 12:02:32;;;;;;;11.23;8.10;;;21.40;85.90;;;;;;6075217;23;20424;-76
2023/10/01 12:05:16;;;;;;;13.73;8.67;;;21.50;85.60;;;;;;6029867;23;20396;-76
2023/10/01 12:07:43;;;;;;;11.20;6.40;;;21.60;84.50;;;;;;6071783;23;20420;-78
2023/10/01 12:12:55;;;;;;;13.67;7.47;;;21.60;84.50;;;;;;6120971;23;20368;-76
2023/10/01 12:15:34;;;;;;;16.07;9.27;;;21.60;83.60;;;;;;6119989;23;20384;-76
2023/10/01 12:18:36;;;;;;;12.13;7.50;;;21.70;81.90;;;;;;6104275;23;20532;-76
2023/10/01 12:21:24;;;;;;;12.70;7.47;;;21.70;81.90;;;;;;6097743;23;20396;-77
2023/10/01 12:23:50;;;;;;;11.60;7.80;;;21.70;81.10;;;;;;6120234;23;20404;-78
2023/10/01 12:29:25;;;;;;;12.87;8.83;;;21.80;79.50;;;;;;6073114;23;20399;-75
2023/10/01 12:31:45;;;;;;;10.87;7.50;;;21.90;77.60;;;;;;6119508;23;20380;-77
2023/10/01 12:34:11;;;;;;;14.47;8.87;;;21.90;78.00;;;;;;6071119;23;20420;-77
2023/10/01 12:36:47;;;;;;;17.27;9.43;;;22.00;76.80;;;;;;6095616;23;20396;-76
2023/10/01 12:39:17;;;;;;;14.90;8.30;;;22.00;76.40;;;;;;6073411;23;20480;-76
2023/10/01 12:44:30;;;;;;;11.90;7.30;;;22.00;76.00;;;;;;6097222;23;20460;-77
2023/10/01 12:47:15;;;;;;;16.77;8.73;;;22.00;76.60;;;;;;6117448;23;20424;-78
2023/10/01 12:49:58;;;;;;;10.77;6.60;;;22.10;76.00;;;;;;6119714;23;20403;-77
2023/10/01 12:52:30;;;;;;;13.23;8.27;;;22.10;75.90;;;;;;6100561;23;20376;-77
2023/10/01 12:55:00;;;;;;;14.93;7.87;;;22.10;75.80;;;;;;6118955;23;20731;-75
2023/10/01 12:57:33;;;;;;;16.47;9.33;;;22.20;75.00;;;;;;6120618;23;20384;-77
2023/10/01 13:02:45;;;;;;;14.70;8.50;;;22.40;72.50;;;;;;6119838;23;20387;-77
2023/10/01 13:05:22;;;;;;;14.40;8.90;;;22.50;71.40;;;;;;6118140;23;20428;-75
2023/10/01 13:07:56;;;;;;;11.47;6.77;;;22.40;72.00;;;;;;6073933;23;20500;-77
2023/10/01 13:10:35;;;;;;;13.60;8.33;;;22.50;72.50;;;;;;6098348;23;20822;-77
2023/10/01 13:13:05;;;;;;;13.23;8.50;;;22.50;72.40;;;;;;6116946;23;20380;-74
2023/10/01 13:15:36;;;;;;;12.57;8.27;;;22.60;70.10;;;;;;6118349;23;20365;-76
2023/10/01 13:18:14;;;;;;;13.80;8.70;;;22.60;71.20;;;;;;6096920;23;20861;-80
2023/10/01 13:23:25;;;;;;;12.10;7.77;;;22.60;70.00;;;;;;6140507;23;20405;-77
2023/10/01 13:26:06;;;;;;;15.10;8.93;;;22.60;71.40;;;;;;6096348;23;20361;-77
2023/10/01 13:28:56;;;;;;;12.23;8.50;;;22.70;70.00;;;;;;6094682;23;20503;-75
2023/10/01 13:34:10;;;;;;;9.90;6.70;;;22.70;67.50;;;;;;6098235;23;20459;-76
2023/10/01 14:13:06;;;;;;;10.90;7.43;;;23.40;65.30;;;;;;6149930;23;20578;-75
2023/10/01 14:15:32;;;;;;;14.23;8.57;;;23.30;65.50;;;;;;6149705;23;20383;-78
2023/10/01 14:18:08;;;;;;;13.20;9.17;;;23.40;65.60;;;;;;6148370;23;20406;-75
2023/10/01 14:20:48;;;;;;;12.60;9.23;;;23.20;65.20;;;;;;6098909;23;20395;-76
2023/10/01 14:23:39;;;;;;;13.13;9.43;;;23.20;65.50;;;;;;6123834;23;20391;-76
2023/10/01 14:26:55;;;;;;;12.70;8.20;;;23.10;66.00;;;;;;6102886;23;20387;-78
2023/10/01 14:29:05;;;;;;;12.47;7.37;;;23.10;66.30;;;;;;6135441;23;20423;-77
2023/10/01 14:31:41;;;;;;;12.17;7.37;;;23.10;66.80;;;;;;6123616;23;20372;-75
2023/10/01 14:34:11;;;;;;;12.50;8.43;;;23.10;67.10;;;;;;6120194;23;20403;-77
2023/10/01 14:36:39;;;;;;;11.43;8.00;;;23.10;66.90;;;;;;6096131;23;20436;-76
2023/10/01 14:39:09;;;;;;;13.70;8.20;;;23.10;67.30;;;;;;6143500;23;20708;-76
2023/10/01 14:41:41;;;;;;;12.27;7.80;;;23.10;67.10;;;;;;6118210;23;20515;-74
2023/10/01 14:44:08;;;;;;;12.87;7.57;;;23.00;67.40;;;;;;6119820;23;20400;-74
2023/10/01 14:46:37;;;;;;;12.50;8.30;;;23.00;67.60;;;;;;6119424;23;20387;-75
2023/10/01 14:49:24;;;;;;;12.10;8.20;;;23.00;67.90;;;;;;6094369;23;20423;-76
2023/10/01 14:51:54;;;;;;;13.57;9.20;;;22.90;67.90;;;;;;6095786;23;20391;-76
2023/10/01 14:54:20;;;;;;;10.83;7.83;;;22.80;68.10;;;;;;6132576;23;20384;-75
2023/10/01 14:57:00;;;;;;;10.70;7.10;;;22.80;68.70;;;;;;6123811;23;20421;-77
2023/10/01 14:59:30;;;;;;;13.00;8.30;;;22.90;69.40;;;;;;6123868;23;20394;-75